Time;durP1;ratioP1;P1;durP2;ratioP2;P2;SDS_P1;SDS_P2;PMS_P1;PMS_P2;Temp;Humidity;BMP_temperature;BMP_pressure;BME280_temperature;BME280_humidity;BME280_pressure;Samples;Min_cycle;Max_cycle;Signal;HPM_P1;HPM_P2
2022/06/24 00:00:41;;;;;;;14.02;10.70;;;24.50;93.20;;;;;;5091477;27;20076;-77
2022/06/24 00:03:16;;;;;;;18.98;10.85;;;24.40;93.70;;;;;;5107962;27;20039;-77
2022/06/24 00:05:42;;;;;;;15.35;10.18;;;24.40;94.30;;;;;;5090668;27;20039;-77
2022/06/24 00:08:07;;;;;;;18.15;11.15;;;24.30;94.00;;;;;;5107759;27;20376;-77
2022/06/24 00:10:35;;;;;;;12.50;10.98;;;24.20;94.30;;;;;;5092231;27;20091;-76
2022/06/24 00:13:02;;;;;;;20.65;11.88;;;24.10;94.50;;;;;;5085171;27;20035;-77
2022/06/24 00:15:32;;;;;;;13.25;10.70;;;24.10;94.80;;;;;;5091483;27;20035;-76
2022/06/24 00:18:10;;;;;;;14.27;10.30;;;24.00;95.10;;;;;;5108054;27;20045;-75
2022/06/24 00:20:45;;;;;;;13.27;10.80;;;24.00;95.40;;;;;;5108123;27;20383;-75
2022/06/24 00:23:12;;;;;;;15.20;11.10;;;23.90;95.70;;;;;;5091707;27;20043;-75
2022/06/24 00:25:38;;;;;;;14.57;11.20;;;23.90;95.70;;;;;;5090819;27;20047;-75
2022/06/24 00:28:08;;;;;;;13.38;10.50;;;23.80;95.90;;;;;;5090338;27;20077;-75
2022/06/24 00:30:54;;;;;;;18.38;11.10;;;23.80;96.00;;;;;;5106557;27;20062;-75
2022/06/24 00:33:25;;;;;;;15.52;10.95;;;23.80;96.20;;;;;;5108155;27;20126;-75
2022/06/24 00:35:53;;;;;;;15.32;10.57;;;23.80;96.30;;;;;;5105389;27;20045;-76
2022/06/24 00:38:25;;;;;;;12.80;10.40;;;23.70;96.40;;;;;;5107805;27;20035;-76
2022/06/24 00:40:59;;;;;;;15.27;11.40;;;23.70;96.80;;;;;;5092481;27;20111;-75
2022/06/24 00:43:29;;;;;;;14.10;10.82;;;23.60;97.00;;;;;;5091676;27;20039;-75
2022/06/24 00:46:20;;;;;;;14.48;11.00;;;23.50;97.20;;;;;;5107236;27;20114;-75
2022/06/24 00:48:48;;;;;;;15.00;10.70;;;23.40;97.40;;;;;;5078004;27;20053;-75
2022/06/24 00:51:14;;;;;;;15.75;10.07;;;23.30;97.70;;;;;;5106796;27;20042;-75
2022/06/24 00:53:47;;;;;;;12.25;9.95;;;23.30;97.90;;;;;;5107510;27;20031;-75
2022/06/24 00:56:16;;;;;;;15.18;10.55;;;23.30;98.40;;;;;;5106395;27;20035;-76
2022/06/24 00:58:57;;;;;;;13.60;9.82;;;23.30;98.40;;;;;;5105557;27;20057;-75
2022/06/24 01:01:33;;;;;;;13.13;9.60;;;23.30;98.50;;;;;;5106423;27;20382;-75
2022/06/24 01:04:00;;;;;;;15.30;10.35;;;23.20;98.50;;;;;;5089631;27;20039;-76
2022/06/24 01:06:27;;;;;;;13.10;9.80;;;23.20;98.40;;;;;;5107156;27;20377;-76
2022/06/24 01:08:53;;;;;;;14.68;10.32;;;23.10;98.50;;;;;;5090357;27;20100;-76
2022/06/24 01:11:27;;;;;;;17.60;10.80;;;23.10;99.00;;;;;;5087341;27;20376;-76
2022/06/24 01:13:53;;;;;;;13.57;11.63;;;23.00;98.80;;;;;;5107611;27;20038;-76
2022/06/24 01:16:21;;;;;;;17.55;11.25;;;23.00;99.20;;;;;;5088141;27;20047;-76
2022/06/24 01:18:51;;;;;;;16.27;11.43;;;22.90;99.40;;;;;;5108207;27;20047;-76
2022/06/24 01:21:33;;;;;;;17.80;11.95;;;22.90;99.80;;;;;;5089299;27;20051;-76
2022/06/24 01:24:12;;;;;;;12.15;10.85;;;22.90;99.90;;;;;;5107609;27;20050;-76
2022/06/24 01:26:40;;;;;;;11.75;10.00;;;22.80;99.90;;;;;;5124476;27;20471;-76
2022/06/24 01:29:06;;;;;;;12.65;10.43;;;22.90;99.90;;;;;;5089971;27;20143;-76
2022/06/24 01:31:33;;;;;;;17.23;11.40;;;22.90;99.90;;;;;;5105550;27;20039;-76
2022/06/24 01:33:59;;;;;;;13.80;11.10;;;23.00;99.90;;;;;;5107545;27;20031;-76
2022/06/24 01:36:24;;;;;;;15.23;11.50;;;23.00;99.90;;;;;;5105975;27;20090;-76
2022/06/24 01:38:50;;;;;;;12.90;11.60;;;23.10;99.90;;;;;;5089233;28;20575;-76
2022/06/24 01:41:17;;;;;;;18.20;10.90;;;23.00;99.90;;;;;;5059031;28;20497;-76
2022/06/24 01:43:43;;;;;;;21.20;12.10;;;23.00;99.90;;;;;;5059028;28;20119;-76
2022/06/24 01:46:09;;;;;;;14.23;12.00;;;23.00;99.90;;;;;;5074429;28;20032;-76
2022/06/24 01:48:35;;;;;;;16.52;12.55;;;23.00;99.90;;;;;;5092054;28;20367;-76
2022/06/24 01:51:01;;;;;;;16.33;13.27;;;23.00;99.90;;;;;;5091131;28;20039;-76
2022/06/24 01:53:27;;;;;;;16.77;11.85;;;23.00;99.90;;;;;;5065931;28;20073;-76
2022/06/24 01:55:52;;;;;;;14.60;11.68;;;22.90;99.90;;;;;;5090350;28;20043;-76
2022/06/24 01:58:18;;;;;;;16.70;13.77;;;22.90;99.90;;;;;;5090267;28;20031;-76
2022/06/24 02:00:44;;;;;;;18.42;15.02;;;22.90;99.90;;;;;;5060979;28;20055;-76
2022/06/24 02:03:09;;;;;;;20.58;15.10;;;22.90;99.90;;;;;;5107750;28;20085;-76
2022/06/24 02:05:35;;;;;;;16.73;13.45;;;22.80;99.90;;;;;;5091659;28;20035;-75
2022/06/24 02:08:01;;;;;;;17.60;14.48;;;22.80;99.90;;;;;;5091192;28;20039;-76
2022/06/24 02:13:28;;;;;;;22.52;16.50;;;22.70;99.90;;;;;;5091982;28;20035;-76
2022/06/24 02:15:55;;;;;;;18.52;16.13;;;22.70;99.90;;;;;;5062297;28;20035;-76
2022/06/24 02:18:23;;;;;;;19.15;16.88;;;22.60;99.90;;;;;;5092299;28;20035;-76
2022/06/24 02:20:49;;;;;;;23.00;17.75;;;22.60;99.90;;;;;;5089143;28;20039;-76
2022/06/24 02:23:16;;;;;;;18.15;16.25;;;22.60;99.90;;;;;;5111822;27;20403;-76
2022/06/24 02:25:42;;;;;;;18.55;16.50;;;22.60;99.90;;;;;;5111646;27;20091;-76
2022/06/24 02:28:08;;;;;;;24.08;18.25;;;22.60;99.90;;;;;;5094240;27;20050;-76
2022/06/24 02:30:33;;;;;;;19.88;17.40;;;22.60;99.90;;;;;;5068023;28;20093;-76
2022/06/24 02:32:59;;;;;;;17.70;15.45;;;22.50;99.90;;;;;;5073388;28;20414;-76
2022/06/24 02:35:26;;;;;;;29.45;16.83;;;22.50;99.90;;;;;;5091248;28;20047;-76
2022/06/24 02:37:54;;;;;;;21.55;17.23;;;22.50;99.90;;;;;;5090226;28;20035;-76
2022/06/24 02:43:14;;;;;;;23.05;18.45;;;22.50;99.90;;;;;;5092760;28;20525;-76
2022/06/24 02:45:40;;;;;;;22.85;18.02;;;22.40;99.90;;;;;;5090413;28;20048;-76
2022/06/24 02:48:07;;;;;;;27.25;19.75;;;22.40;99.90;;;;;;5104350;28;20051;-76
2022/06/24 02:50:48;;;;;;;28.40;18.42;;;22.40;99.90;;;;;;5088992;28;20035;-76
2022/06/24 02:53:17;;;;;;;29.45;18.60;;;22.30;99.90;;;;;;5081945;28;20119;-77
2022/06/24 02:55:49;;;;;;;31.45;19.13;;;22.30;99.90;;;;;;5107268;28;20054;-76
2022/06/24 02:58:15;;;;;;;21.98;17.67;;;22.40;99.90;;;;;;5104511;28;20035;-76
2022/06/24 03:00:41;;;;;;;20.55;17.15;;;22.30;99.90;;;;;;5103453;28;20032;-77
2022/06/24 03:03:08;;;;;;;24.35;20.00;;;22.20;99.90;;;;;;5105958;28;20036;-77
2022/06/24 03:05:35;;;;;;;21.50;19.23;;;22.20;99.90;;;;;;5089500;28;20035;-76
2022/06/24 03:08:01;;;;;;;24.00;21.00;;;22.10;99.90;;;;;;5087395;28;20031;-78
2022/06/24 03:10:27;;;;;;;21.63;17.85;;;21.90;99.90;;;;;;5087130;28;20035;-76
2022/06/24 03:12:52;;;;;;;23.23;19.50;;;21.90;99.90;;;;;;5088490;28;20036;-76
2022/06/24 03:15:19;;;;;;;21.83;18.85;;;21.90;99.90;;;;;;5106939;28;20096;-76
2022/06/24 03:17:44;;;;;;;27.08;20.23;;;21.90;99.90;;;;;;5106262;28;20043;-75
2022/06/24 03:20:10;;;;;;;21.83;18.42;;;21.90;99.90;;;;;;5073260;28;20115;-76
2022/06/24 03:22:37;;;;;;;20.45;17.80;;;21.80;99.90;;;;;;5088044;28;20039;-77
2022/06/24 03:25:04;;;;;;;24.50;19.45;;;21.80;99.90;;;;;;5090218;28;20036;-76
2022/06/24 03:27:29;;;;;;;21.63;18.35;;;21.80;99.90;;;;;;5106320;28;20539;-76
2022/06/24 03:29:55;;;;;;;22.08;18.92;;;21.70;99.90;;;;;;5105412;28;20043;-76
2022/06/24 03:32:21;;;;;;;20.98;17.00;;;21.80;99.90;;;;;;5076244;28;20044;-76
2022/06/24 03:34:47;;;;;;;16.42;12.88;;;21.70;99.90;;;;;;5089261;28;20031;-76
2022/06/24 03:37:12;;;;;;;17.00;11.43;;;21.70;99.90;;;;;;5089580;28;20392;-76
2022/06/24 03:39:38;;;;;;;14.45;10.27;;;21.70;99.90;;;;;;5074000;28;20035;-76
2022/06/24 03:42:05;;;;;;;10.70;8.77;;;21.60;99.90;;;;;;5107278;28;20077;-75
2022/06/24 03:44:31;;;;;;;9.60;7.88;;;21.50;99.90;;;;;;5073679;28;20481;-76
2022/06/24 03:46:56;;;;;;;12.75;8.10;;;21.40;99.90;;;;;;5106225;28;20047;-76
2022/06/24 03:49:23;;;;;;;9.20;7.13;;;21.40;99.90;;;;;;5108396;28;20118;-76
2022/06/24 03:51:49;;;;;;;10.48;6.90;;;21.30;99.90;;;;;;5090490;28;20124;-76
2022/06/24 03:54:15;;;;;;;9.13;6.78;;;21.30;99.90;;;;;;5090553;28;20040;-76
2022/06/24 03:56:41;;;;;;;9.88;5.70;;;21.30;99.90;;;;;;5090323;28;20032;-77
2022/06/24 03:59:06;;;;;;;8.57;5.50;;;21.20;99.90;;;;;;5105743;28;20373;-77
2022/06/24 04:01:32;;;;;;;7.03;4.60;;;21.20;99.90;;;;;;5089707;28;20046;-76
2022/06/24 04:03:58;;;;;;;8.32;4.28;;;21.10;99.90;;;;;;5072764;28;20043;-76
2022/06/24 04:06:24;;;;;;;7.68;4.30;;;21.00;99.90;;;;;;5090876;28;20364;-77
2022/06/24 04:08:49;;;;;;;6.40;4.43;;;21.10;99.90;;;;;;5073188;28;20031;-76
2022/06/24 04:11:17;;;;;;;6.75;4.05;;;21.00;99.90;;;;;;5105161;28;20533;-76
2022/06/24 04:13:43;;;;;;;4.10;3.60;;;21.00;99.90;;;;;;5075646;28;20360;-76
2022/06/24 04:16:10;;;;;;;6.13;4.05;;;20.90;99.90;;;;;;5106537;28;20053;-76
2022/06/24 04:18:36;;;;;;;5.50;3.78;;;20.90;99.90;;;;;;5088919;28;20049;-76
2022/06/24 04:21:02;;;;;;;5.30;4.00;;;20.80;99.90;;;;;;5088455;28;20096;-76
2022/06/24 04:23:28;;;;;;;4.45;3.53;;;20.80;99.90;;;;;;5088768;28;20063;-76
2022/06/24 04:25:54;;;;;;;5.30;4.30;;;20.80;99.90;;;;;;5089771;28;20114;-76
2022/06/24 04:28:19;;;;;;;4.80;3.83;;;20.80;99.90;;;;;;5088685;28;20047;-76
2022/06/24 04:30:45;;;;;;;7.00;4.20;;;20.80;99.90;;;;;;5088968;28;20067;-76
2022/06/24 04:33:11;;;;;;;4.63;4.20;;;20.80;99.90;;;;;;5104783;28;20097;-76
2022/06/24 04:35:37;;;;;;;4.60;3.83;;;20.90;99.90;;;;;;5051464;28;20486;-77
2022/06/24 04:38:02;;;;;;;5.70;4.60;;;20.90;99.90;;;;;;5104828;28;20054;-76
2022/06/24 04:40:28;;;;;;;7.13;5.15;;;20.90;99.90;;;;;;5105268;28;20046;-76
2022/06/24 04:42:54;;;;;;;7.10;5.03;;;21.00;99.90;;;;;;5104530;28;20051;-76
2022/06/24 04:45:20;;;;;;;10.25;5.38;;;21.00;99.90;;;;;;5103980;28;20039;-76
2022/06/24 04:47:46;;;;;;;10.07;5.63;;;21.00;99.90;;;;;;5102333;28;20035;-76
2022/06/24 04:50:12;;;;;;;6.13;5.00;;;21.00;99.90;;;;;;5087515;28;20104;-76
2022/06/24 04:52:39;;;;;;;6.68;5.30;;;21.00;99.90;;;;;;5089104;28;20049;-76
2022/06/24 04:55:06;;;;;;;8.00;6.13;;;21.00;99.90;;;;;;5087002;28;20123;-76
2022/06/24 04:57:32;;;;;;;6.57;5.55;;;21.10;99.90;;;;;;5088442;28;20101;-76
2022/06/24 04:59:58;;;;;;;9.68;6.40;;;21.10;99.90;;;;;;5105262;28;20084;-76
2022/06/24 05:02:24;;;;;;;6.95;6.25;;;21.10;99.90;;;;;;5087410;28;20442;-76
2022/06/24 05:04:49;;;;;;;7.78;6.32;;;21.10;99.90;;;;;;5086229;28;20038;-76
2022/06/24 05:07:15;;;;;;;6.78;5.88;;;21.10;99.90;;;;;;5087648;28;20096;-76
2022/06/24 05:09:42;;;;;;;7.47;5.95;;;21.10;99.90;;;;;;5088956;28;20035;-76
2022/06/24 05:12:09;;;;;;;7.30;6.22;;;21.10;99.90;;;;;;5103926;28;20034;-76
2022/06/24 05:14:37;;;;;;;7.22;5.93;;;21.20;99.90;;;;;;5105010;28;20072;-77
2022/06/24 05:17:03;;;;;;;9.48;6.50;;;21.20;99.90;;;;;;5070705;28;20031;-76
2022/06/24 05:19:29;;;;;;;7.78;6.10;;;21.10;99.90;;;;;;5070552;28;20197;-76
2022/06/24 05:21:55;;;;;;;6.18;5.25;;;21.10;99.90;;;;;;5064838;28;20532;-77
2022/06/24 05:24:22;;;;;;;7.47;5.38;;;21.10;99.90;;;;;;5104953;28;20738;-76
2022/06/24 05:26:47;;;;;;;8.45;5.65;;;21.10;99.90;;;;;;5069547;28;20063;-76
2022/06/24 05:29:13;;;;;;;6.57;5.35;;;21.10;99.90;;;;;;5087267;28;20511;-76
2022/06/24 05:31:39;;;;;;;6.88;5.63;;;21.10;99.90;;;;;;5088042;28;20054;-75
2022/06/24 05:34:07;;;;;;;6.45;5.53;;;21.10;99.90;;;;;;5087897;28;20039;-77
2022/06/24 05:36:34;;;;;;;5.68;5.07;;;21.10;99.90;;;;;;5103810;28;20036;-77
2022/06/24 05:39:05;;;;;;;7.75;5.57;;;21.00;99.90;;;;;;5104571;28;20043;-76
2022/06/24 05:41:32;;;;;;;10.30;5.57;;;21.00;99.90;;;;;;5104831;28;20054;-77
2022/06/24 05:43:58;;;;;;;6.38;5.25;;;21.00;99.90;;;;;;5056871;28;20063;-77
2022/06/24 05:46:23;;;;;;;7.20;5.03;;;21.10;99.90;;;;;;5103637;28;20031;-77
2022/06/24 05:48:49;;;;;;;6.07;4.80;;;21.10;99.90;;;;;;5066757;28;20035;-77
2022/06/24 05:51:16;;;;;;;6.75;4.93;;;21.10;99.90;;;;;;5084526;28;20043;-76
2022/06/24 05:56:28;;;;;;;6.72;4.55;;;21.20;99.90;;;;;;5103528;28;20043;-76
2022/06/24 05:58:54;;;;;;;6.60;4.70;;;21.20;99.90;;;;;;5091575;28;20070;-76
2022/06/24 06:01:20;;;;;;;4.80;4.28;;;21.20;99.90;;;;;;5109145;28;20046;-76
2022/06/24 06:03:47;;;;;;;5.75;4.18;;;21.20;99.90;;;;;;5106611;28;20031;-76
2022/06/24 06:06:13;;;;;;;6.70;5.05;;;21.10;99.90;;;;;;5073097;28;20475;-76
2022/06/24 06:08:40;;;;;;;5.35;4.25;;;21.10;99.90;;;;;;5061849;28;20027;-76
2022/06/24 06:11:17;;;;;;;6.95;4.65;;;21.10;99.90;;;;;;5108108;28;20595;-75
2022/06/24 06:13:44;;;;;;;6.28;4.47;;;21.00;99.90;;;;;;5107038;28;20040;-75
2022/06/24 06:16:11;;;;;;;7.90;4.18;;;21.00;99.90;;;;;;5073789;28;20054;-75
2022/06/24 06:18:37;;;;;;;5.22;4.63;;;20.90;99.90;;;;;;5107243;28;20754;-75
2022/06/24 06:21:05;;;;;;;6.75;4.38;;;20.90;99.90;;;;;;5060505;28;20043;-74
2022/06/24 06:23:31;;;;;;;6.85;4.50;;;20.90;99.90;;;;;;5089957;28;20088;-76
2022/06/24 06:26:02;;;;;;;9.57;5.10;;;20.90;99.90;;;;;;5088321;28;20404;-75
2022/06/24 06:28:28;;;;;;;5.88;4.70;;;20.90;99.90;;;;;;5104601;28;20034;-75
2022/06/24 06:30:53;;;;;;;5.70;4.53;;;20.90;99.90;;;;;;5129082;27;20035;-75
2022/06/24 06:33:19;;;;;;;9.63;4.70;;;20.90;99.90;;;;;;5094501;27;20493;-75
2022/06/24 06:35:45;;;;;;;5.65;4.85;;;20.90;99.90;;;;;;5092952;27;20035;-75
2022/06/24 06:38:11;;;;;;;6.25;4.57;;;20.90;99.90;;;;;;5093458;27;20087;-75
2022/06/24 06:40:38;;;;;;;7.57;5.07;;;20.90;99.90;;;;;;5111237;27;20053;-75
2022/06/24 06:43:09;;;;;;;5.50;5.00;;;20.80;99.90;;;;;;5062635;27;20027;-75
2022/06/24 06:45:36;;;;;;;5.80;4.55;;;20.90;99.90;;;;;;5127001;27;20108;-75
2022/06/24 06:48:02;;;;;;;6.90;4.60;;;20.80;99.90;;;;;;5106084;27;20047;-75
2022/06/24 06:50:28;;;;;;;6.75;4.80;;;20.90;99.90;;;;;;5091914;27;20100;-76
2022/06/24 06:52:54;;;;;;;7.57;5.45;;;20.80;99.90;;;;;;5107808;27;20386;-76
2022/06/24 06:55:20;;;;;;;6.32;4.95;;;20.80;99.90;;;;;;5089852;27;20100;-76
2022/06/24 06:57:46;;;;;;;7.70;5.75;;;20.90;99.90;;;;;;5109590;27;20046;-76
2022/06/24 07:00:13;;;;;;;6.22;5.13;;;20.80;99.90;;;;;;5125371;27;20047;-76
2022/06/24 07:02:39;;;;;;;6.38;5.53;;;20.90;99.90;;;;;;5107344;27;20050;-77
2022/06/24 07:05:06;;;;;;;6.75;5.13;;;20.80;99.90;;;;;;5092837;27;20046;-75
2022/06/24 07:07:33;;;;;;;6.10;4.95;;;20.80;99.90;;;;;;5124165;27;20084;-76
2022/06/24 07:09:59;;;;;;;5.03;4.53;;;20.80;99.90;;;;;;5108941;27;20042;-76
2022/06/24 07:12:26;;;;;;;5.47;4.60;;;20.80;99.90;;;;;;5127638;27;20047;-76
2022/06/24 07:14:52;;;;;;;6.82;4.82;;;20.80;99.90;;;;;;5108808;27;20035;-76
2022/06/24 07:17:18;;;;;;;11.07;4.93;;;20.80;99.90;;;;;;5107778;27;20054;-76
2022/06/24 07:19:45;;;;;;;7.95;4.68;;;20.70;99.90;;;;;;5126183;27;20039;-75
2022/06/24 07:22:11;;;;;;;5.30;4.68;;;20.70;99.90;;;;;;5129554;27;20168;-76
2022/06/24 07:24:37;;;;;;;4.95;4.10;;;20.70;99.90;;;;;;5092862;27;20546;-76
2022/06/24 07:27:04;;;;;;;5.38;4.15;;;20.70;99.90;;;;;;5127580;27;20035;-76
2022/06/24 07:29:34;;;;;;;5.82;4.70;;;20.70;99.90;;;;;;5127677;27;20050;-76
2022/06/24 07:32:01;;;;;;;5.28;4.50;;;20.80;99.90;;;;;;5128061;27;20046;-77
2022/06/24 07:34:27;;;;;;;7.25;4.40;;;20.70;99.90;;;;;;5090363;27;20047;-75
2022/06/24 07:36:53;;;;;;;6.28;4.60;;;20.70;99.90;;;;;;5127411;27;20054;-76
2022/06/24 07:39:19;;;;;;;8.63;4.45;;;20.70;99.90;;;;;;5110116;27;20057;-76
2022/06/24 07:41:45;;;;;;;6.63;4.50;;;20.70;99.90;;;;;;5108109;27;20031;-75
2022/06/24 07:44:11;;;;;;;6.90;4.88;;;20.80;99.90;;;;;;5090985;27;20054;-76
2022/06/24 07:46:36;;;;;;;5.68;4.65;;;20.70;99.90;;;;;;5128370;27;20035;-76
2022/06/24 07:49:02;;;;;;;5.93;4.55;;;20.70;99.90;;;;;;5109997;27;20484;-76
2022/06/24 07:51:28;;;;;;;7.57;4.45;;;20.70;99.90;;;;;;5111233;27;20487;-75
2022/06/24 07:53:54;;;;;;;5.97;3.90;;;20.60;99.90;;;;;;5108198;27;20031;-76
2022/06/24 07:59:05;;;;;;;6.95;5.00;;;20.70;99.90;;;;;;5125766;27;20050;-76
2022/06/24 08:01:31;;;;;;;9.52;4.10;;;20.60;99.90;;;;;;5126225;27;20146;-76
2022/06/24 08:03:58;;;;;;;10.50;4.68;;;20.70;99.90;;;;;;5127799;27;20383;-76
2022/06/24 08:06:24;;;;;;;5.72;4.15;;;20.60;99.90;;;;;;5126956;27;20042;-76
2022/06/24 08:08:50;;;;;;;6.18;4.10;;;20.60;99.90;;;;;;5128596;27;20054;-76
2022/06/24 08:11:16;;;;;;;5.40;3.72;;;20.60;99.90;;;;;;5081045;27;20023;-76
2022/06/24 08:13:41;;;;;;;6.13;3.55;;;20.50;99.90;;;;;;5092050;27;20039;-77
2022/06/24 08:16:07;;;;;;;5.97;4.00;;;20.40;99.90;;;;;;5108861;27;20045;-77
2022/06/24 08:18:33;;;;;;;5.22;3.88;;;20.40;99.90;;;;;;5124209;27;20124;-75
2022/06/24 08:20:59;;;;;;;7.28;4.53;;;20.30;99.90;;;;;;5109045;27;20038;-76
2022/06/24 08:23:25;;;;;;;12.55;5.18;;;20.30;99.90;;;;;;5125411;27;20031;-77
2022/06/24 08:25:50;;;;;;;11.90;5.80;;;20.20;99.90;;;;;;5085956;27;20047;-78
2022/06/24 08:28:16;;;;;;;12.57;5.80;;;20.20;99.90;;;;;;5071589;27;20099;-76
2022/06/24 08:30:42;;;;;;;14.80;5.68;;;20.10;99.90;;;;;;5091964;27;20502;-77
2022/06/24 08:33:08;;;;;;;13.93;5.93;;;20.10;99.90;;;;;;5071104;27;20039;-79
2022/06/24 08:35:33;;;;;;;7.70;5.43;;;20.00;99.90;;;;;;5057065;27;20039;-78
2022/06/24 08:38:01;;;;;;;8.10;4.82;;;20.00;99.90;;;;;;5069168;27;20114;-77
2022/06/24 08:40:28;;;;;;;6.60;3.10;;;20.00;99.90;;;;;;5089398;27;20043;-78
2022/06/24 08:42:56;;;;;;;5.25;3.42;;;19.90;99.90;;;;;;5107638;27;20080;-77
2022/06/24 08:45:23;;;;;;;6.30;3.60;;;19.90;99.90;;;;;;5107927;27;20126;-79
2022/06/24 08:47:49;;;;;;;5.10;3.28;;;19.90;99.90;;;;;;5103730;27;20047;-78
2022/06/24 08:50:16;;;;;;;7.35;3.67;;;19.90;99.90;;;;;;5073821;27;20047;-77
2022/06/24 08:52:47;;;;;;;8.02;3.40;;;19.80;99.90;;;;;;5087078;27;20043;-77
2022/06/24 08:55:17;;;;;;;8.13;3.25;;;19.80;99.90;;;;;;5087840;27;20405;-78
2022/06/24 08:57:44;;;;;;;7.18;3.28;;;19.80;99.90;;;;;;5106306;27;20043;-78
2022/06/24 09:00:11;;;;;;;4.82;2.80;;;19.80;99.90;;;;;;5122032;27;20054;-77
2022/06/24 09:02:36;;;;;;;4.60;2.97;;;19.80;99.90;;;;;;5106906;27;20082;-78
2022/06/24 09:05:13;;;;;;;3.85;2.80;;;19.80;99.90;;;;;;5123945;27;20443;-76
2022/06/24 09:07:39;;;;;;;3.58;2.90;;;19.70;99.90;;;;;;5120722;27;20175;-76
2022/06/24 09:10:11;;;;;;;7.80;3.08;;;19.70;99.90;;;;;;5121555;27;20125;-76
2022/06/24 09:12:40;;;;;;;4.90;2.90;;;19.70;99.90;;;;;;5123955;27;20183;-76
2022/06/24 09:15:08;;;;;;;4.05;2.78;;;19.70;99.90;;;;;;5103170;27;20055;-77
2022/06/24 09:17:35;;;;;;;5.55;3.10;;;19.70;99.90;;;;;;5121914;27;20055;-76
2022/06/24 09:20:09;;;;;;;7.20;3.20;;;19.70;99.90;;;;;;5123142;27;20040;-76
2022/06/24 09:22:35;;;;;;;4.78;3.25;;;19.70;99.90;;;;;;5104860;27;20126;-76
2022/06/24 09:25:03;;;;;;;5.70;3.17;;;19.60;99.90;;;;;;5103466;27;20046;-76
2022/06/24 09:27:30;;;;;;;4.90;3.42;;;19.60;99.90;;;;;;5104840;27;20402;-76
2022/06/24 09:29:56;;;;;;;5.25;3.47;;;19.70;99.90;;;;;;5122848;27;20055;-76
2022/06/24 09:32:22;;;;;;;5.15;3.65;;;19.70;99.90;;;;;;5088608;27;20047;-76
2022/06/24 09:35:07;;;;;;;5.80;4.35;;;19.70;99.90;;;;;;5106193;27;20042;-76
2022/06/24 09:37:41;;;;;;;7.07;4.23;;;19.70;99.90;;;;;;5124838;27;20082;-76
2022/06/24 09:40:26;;;;;;;4.93;3.72;;;19.70;99.90;;;;;;5089417;27;20043;-76
2022/06/24 09:42:57;;;;;;;6.63;4.15;;;19.80;99.90;;;;;;5122108;27;20119;-76
2022/06/24 09:45:25;;;;;;;7.78;4.15;;;19.80;99.90;;;;;;5125721;27;20049;-76
2022/06/24 09:47:52;;;;;;;6.70;3.90;;;19.80;99.90;;;;;;5120944;28;20059;-76
2022/06/24 09:50:20;;;;;;;6.13;3.65;;;19.90;99.90;;;;;;5123359;28;20395;-76
2022/06/24 09:52:46;;;;;;;5.30;3.55;;;19.90;99.90;;;;;;5104479;28;20066;-76
2022/06/24 09:55:12;;;;;;;4.50;3.15;;;19.90;99.90;;;;;;5092996;28;20039;-76
2022/06/24 09:57:39;;;;;;;4.70;3.22;;;20.00;99.90;;;;;;5100574;28;20044;-76
2022/06/24 10:00:45;;;;;;;4.30;3.50;;;20.00;99.90;;;;;;5076304;28;20173;-76
2022/06/24 10:03:17;;;;;;;4.28;3.50;;;20.10;99.90;;;;;;5120015;28;20083;-76
2022/06/24 10:05:49;;;;;;;5.53;3.70;;;20.20;99.90;;;;;;5117085;28;20023;-76
2022/06/24 10:08:17;;;;;;;4.75;3.40;;;20.20;99.90;;;;;;5120631;28;20098;-76
2022/06/24 10:10:50;;;;;;;3.63;3.10;;;20.30;99.90;;;;;;5085300;28;20109;-75
2022/06/24 10:13:28;;;;;;;4.90;3.95;;;20.40;99.90;;;;;;5120104;28;20070;-75
2022/06/24 10:16:01;;;;;;;3.88;3.38;;;20.40;99.90;;;;;;5121138;28;20043;-76
2022/06/24 10:18:32;;;;;;;3.90;3.47;;;20.40;99.90;;;;;;5119148;27;20035;-76
2022/06/24 10:21:01;;;;;;;4.97;3.85;;;20.30;99.90;;;;;;5090845;28;20048;-76
2022/06/24 10:23:47;;;;;;;5.20;3.60;;;20.30;99.90;;;;;;5080385;28;20058;-77
2022/06/24 10:26:34;;;;;;;4.28;3.63;;;20.30;99.90;;;;;;5099660;28;20246;-77
2022/06/24 10:29:06;;;;;;;6.75;3.90;;;20.30;99.90;;;;;;5091015;28;20055;-75
2022/06/24 10:34:22;;;;;;;4.35;3.63;;;20.30;99.90;;;;;;5132999;28;20043;-76
2022/06/24 10:37:06;;;;;;;4.65;3.20;;;20.40;99.90;;;;;;5109204;28;20055;-78
2022/06/24 10:39:46;;;;;;;4.88;3.78;;;20.50;99.90;;;;;;5099271;28;20070;-76
2022/06/24 10:42:14;;;;;;;5.35;3.50;;;20.60;99.90;;;;;;5122403;27;20039;-77
2022/06/24 10:44:59;;;;;;;4.25;3.75;;;20.60;99.90;;;;;;5125848;27;20082;-76
2022/06/24 10:47:28;;;;;;;6.85;4.47;;;20.70;99.90;;;;;;5093871;27;20062;-77
2022/06/24 10:50:00;;;;;;;5.15;4.40;;;20.60;99.90;;;;;;5123694;27;20059;-76
2022/06/24 10:52:51;;;;;;;6.72;4.70;;;20.60;99.90;;;;;;5129034;27;20038;-76
2022/06/24 10:57:46;;;;;;;6.70;5.35;;;20.60;99.90;;;;;;5126846;27;20051;-77
2022/06/24 11:00:20;;;;;;;6.10;5.50;;;20.60;99.90;;;;;;5112261;27;20051;-78
2022/06/24 11:02:59;;;;;;;6.75;5.60;;;20.60;99.90;;;;;;5110038;27;20071;-79
2022/06/24 11:05:34;;;;;;;7.75;6.25;;;20.60;99.90;;;;;;5110457;27;20435;-78
2022/06/24 11:08:01;;;;;;;9.15;7.03;;;20.70;99.90;;;;;;5128199;27;20031;-78
2022/06/24 11:10:31;;;;;;;7.40;6.45;;;20.70;99.90;;;;;;5127572;27;20375;-78
2022/06/24 11:13:02;;;;;;;6.40;5.78;;;20.70;99.90;;;;;;5128405;27;20043;-78
2022/06/24 11:15:34;;;;;;;8.15;6.50;;;20.80;99.90;;;;;;5128287;27;20066;-78
2022/06/24 11:18:13;;;;;;;7.70;6.97;;;20.90;99.90;;;;;;5108738;27;20047;-78
2022/06/24 11:20:40;;;;;;;9.70;7.05;;;21.00;99.90;;;;;;5078016;27;20067;-78
2022/06/24 11:23:07;;;;;;;10.98;7.60;;;21.20;99.90;;;;;;5106445;27;20079;-77
2022/06/24 11:25:34;;;;;;;9.27;8.38;;;21.30;99.90;;;;;;5126523;27;20407;-77
2022/06/24 11:28:00;;;;;;;7.80;7.00;;;21.40;99.90;;;;;;5092057;27;20644;-77
2022/06/24 11:30:26;;;;;;;10.60;7.55;;;21.50;99.90;;;;;;5105281;28;20051;-77
2022/06/24 11:32:54;;;;;;;9.13;8.15;;;21.50;99.90;;;;;;5108064;28;20531;-77
2022/06/24 11:35:22;;;;;;;10.35;7.47;;;21.60;99.90;;;;;;5107712;28;20057;-76
2022/06/24 11:37:48;;;;;;;8.82;7.65;;;21.70;99.90;;;;;;5106611;28;20043;-77
2022/06/24 11:40:25;;;;;;;10.63;9.07;;;21.90;99.90;;;;;;5106364;28;20047;-77
2022/06/24 11:42:52;;;;;;;10.23;9.13;;;21.90;99.90;;;;;;5106901;28;20480;-77
2022/06/24 11:45:34;;;;;;;10.02;9.10;;;22.00;99.90;;;;;;5109369;28;20118;-77
2022/06/24 11:48:01;;;;;;;9.48;8.52;;;22.10;99.90;;;;;;5107362;28;20062;-77
2022/06/24 11:50:27;;;;;;;8.93;7.22;;;22.10;99.90;;;;;;5122069;27;20035;-77
2022/06/24 11:52:55;;;;;;;9.18;8.00;;;22.20;99.90;;;;;;5108305;28;20552;-77
2022/06/24 11:55:24;;;;;;;8.48;7.43;;;22.20;99.90;;;;;;5104172;28;20464;-77
2022/06/24 11:57:54;;;;;;;14.70;7.15;;;22.30;99.90;;;;;;5103577;28;20066;-77
2022/06/24 12:00:21;;;;;;;8.50;7.28;;;22.40;99.90;;;;;;5103138;28;20055;-77
2022/06/24 12:02:47;;;;;;;10.15;7.97;;;22.50;99.90;;;;;;5106172;28;20036;-77
2022/06/24 12:05:13;;;;;;;9.20;8.15;;;22.50;99.90;;;;;;5088180;28;20070;-77
2022/06/24 12:07:39;;;;;;;9.73;8.80;;;22.60;99.90;;;;;;5106206;28;20055;-77
2022/06/24 12:10:06;;;;;;;9.10;8.18;;;22.70;99.90;;;;;;5106992;28;20047;-77
2022/06/24 12:12:32;;;;;;;9.40;8.35;;;22.70;99.90;;;;;;5077375;28;20047;-77
2022/06/24 12:14:58;;;;;;;10.43;9.43;;;22.80;99.90;;;;;;5089486;28;20609;-77
2022/06/24 12:17:24;;;;;;;8.88;7.95;;;22.70;99.90;;;;;;5106766;28;20059;-77
2022/06/24 12:19:59;;;;;;;9.40;8.10;;;23.00;99.90;;;;;;5107234;28;20569;-77
2022/06/24 12:22:24;;;;;;;11.68;8.23;;;23.00;99.90;;;;;;5089925;28;20480;-77
2022/06/24 12:25:00;;;;;;;8.70;7.43;;;23.00;99.90;;;;;;5107892;28;20039;-77
2022/06/24 12:27:36;;;;;;;10.25;9.25;;;23.10;99.90;;;;;;5104312;28;20043;-77
2022/06/24 12:30:02;;;;;;;;;;;23.10;99.90;;;;;;5081581;28;20066;-77
2022/06/24 12:32:28;;;;;;;;;;;23.10;99.90;;;;;;5089282;28;19926;-77
2022/06/24 12:34:57;;;;;;;9.93;8.88;;;23.10;99.90;;;;;;5106712;28;19915;-77
2022/06/24 12:37:22;;;;;;;10.70;9.68;;;23.10;99.90;;;;;;5106089;28;20042;-77
2022/06/24 12:39:50;;;;;;;10.30;9.30;;;23.10;99.90;;;;;;5105331;28;20534;-77
2022/06/24 12:42:18;;;;;;;10.70;9.60;;;23.10;99.90;;;;;;5105403;28;20475;-77
2022/06/24 12:44:45;;;;;;;13.15;11.02;;;23.10;99.90;;;;;;5088146;28;20035;-77
2022/06/24 12:52:46;;;;;;;13.43;12.15;;;23.20;99.90;;;;;;5104209;28;20553;-77
2022/06/24 12:55:14;;;;;;;13.80;12.50;;;23.20;99.90;;;;;;5106268;28;20036;-77
2022/06/24 12:57:40;;;;;;;14.30;13.00;;;23.30;99.90;;;;;;5104111;28;20136;-77
2022/06/24 13:00:10;;;;;;;15.25;13.85;;;23.50;99.90;;;;;;5105010;28;20040;-77
2022/06/24 13:02:40;;;;;;;13.77;12.48;;;23.70;99.90;;;;;;5104662;28;20047;-77
2022/06/24 13:05:06;;;;;;;16.27;14.68;;;23.90;99.90;;;;;;5089573;28;20103;-77
2022/06/24 13:07:32;;;;;;;16.58;15.02;;;24.10;99.90;;;;;;5105019;28;20040;-77